Time;durP1;ratioP1;P1;durP2;ratioP2;P2;SDS_P1;SDS_P2;PMS_P1;PMS_P2;Temp;Humidity;BMP_temperature;BMP_pressure;BME280_temperature;BME280_humidity;BME280_pressure;Samples;Min_cycle;Max_cycle;Signal;HPM_P1;HPM_P2
2024/01/10 00:01:44;;;;;;;21.10;13.60;;;0.80;99.90;;;-0.22;100.00;101961.72;4136031;28;20026;-69
2024/01/10 00:03:45;;;;;;;22.55;13.45;;;0.80;99.90;;;-0.16;100.00;101972.72;4135988;28;20029;-69
2024/01/10 00:05:46;;;;;;;23.63;15.00;;;0.80;99.90;;;-0.18;100.00;101971.09;4136020;28;20474;-69
2024/01/10 00:07:47;;;;;;;23.25;14.50;;;0.80;99.90;;;-0.17;100.00;101977.94;4134448;28;20513;-69
2024/01/10 00:09:48;;;;;;;24.33;14.98;;;0.80;99.90;;;-0.20;100.00;101968.53;4135755;28;20031;-69
2024/01/10 00:11:49;;;;;;;26.85;14.25;;;0.80;99.90;;;-0.19;100.00;101972.00;4135712;28;20046;-68
2024/01/10 00:13:49;;;;;;;23.60;14.93;;;0.80;99.90;;;-0.17;100.00;101965.00;4134925;28;20026;-68
2024/01/10 00:15:50;;;;;;;23.70;14.88;;;0.80;99.90;;;-0.27;100.00;101961.88;4135807;28;20019;-69
2024/01/10 00:17:51;;;;;;;24.13;14.65;;;0.80;99.90;;;-0.24;100.00;101972.16;4134556;28;20034;-68
2024/01/10 00:19:52;;;;;;;25.85;15.32;;;0.70;99.90;;;-0.22;100.00;101965.19;4138090;28;20030;-69
2024/01/10 00:21:53;;;;;;;30.15;16.50;;;0.70;99.90;;;-0.26;100.00;101954.97;4138898;28;20023;-68
2024/01/10 00:23:54;;;;;;;24.52;14.80;;;0.70;99.90;;;-0.30;100.00;101959.41;4138920;28;20077;-69
2024/01/10 00:25:55;;;;;;;23.40;14.77;;;0.70;99.90;;;-0.29;100.00;101948.16;4125936;28;20034;-69
2024/01/10 00:27:55;;;;;;;25.52;14.25;;;0.70;99.90;;;-0.30;100.00;101956.81;4137690;28;20608;-68
2024/01/10 00:29:57;;;;;;;28.73;15.90;;;0.70;99.90;;;-0.29;100.00;101952.47;4137388;28;20450;-68
2024/01/10 00:31:59;;;;;;;22.20;14.93;;;0.70;99.90;;;-0.29;100.00;101957.66;4138814;28;20026;-69
2024/01/10 00:34:00;;;;;;;26.08;14.90;;;0.70;99.90;;;-0.30;100.00;101954.22;4137698;28;20093;-68
2024/01/10 00:36:01;;;;;;;22.88;13.98;;;0.70;99.90;;;-0.30;100.00;101951.63;4138742;28;20494;-69
2024/01/10 00:38:02;;;;;;;28.92;16.98;;;0.70;99.90;;;-0.27;100.00;101950.69;4138581;28;20113;-69
2024/01/10 00:40:03;;;;;;;24.15;14.60;;;0.70;99.90;;;-0.31;100.00;101949.13;4138908;28;20496;-68
2024/01/10 00:42:04;;;;;;;26.58;16.38;;;0.60;99.90;;;-0.41;100.00;101951.19;4138594;28;20026;-68
2024/01/10 00:44:05;;;;;;;25.80;15.90;;;0.60;99.90;;;-0.39;100.00;101943.38;4137376;28;20117;-68
2024/01/10 00:46:05;;;;;;;25.38;14.60;;;0.60;99.90;;;-0.40;100.00;101939.94;4138613;28;20034;-69
2024/01/10 00:48:07;;;;;;;25.33;15.25;;;0.60;99.90;;;-0.39;100.00;101949.41;4138608;28;20080;-68
2024/01/10 00:50:08;;;;;;;27.85;16.00;;;0.60;99.90;;;-0.39;100.00;101943.38;4137292;28;20076;-69
2024/01/10 00:52:09;;;;;;;24.75;14.93;;;0.60;99.90;;;-0.37;100.00;101939.81;4137081;28;20082;-69
2024/01/10 00:54:10;;;;;;;26.33;15.02;;;0.60;99.90;;;-0.35;100.00;101937.16;4138640;28;20036;-69
2024/01/10 00:56:11;;;;;;;27.20;15.88;;;0.60;99.90;;;-0.38;100.00;101945.91;4138392;28;20030;-69
2024/01/10 00:58:12;;;;;;;22.42;13.93;;;0.60;99.90;;;-0.36;100.00;101945.84;4137013;28;20030;-68
2024/01/10 01:00:14;;;;;;;24.33;14.70;;;0.60;99.90;;;-0.39;100.00;101935.59;4137259;28;20021;-68
2024/01/10 01:02:15;;;;;;;27.77;15.73;;;0.60;99.90;;;-0.35;100.00;101935.41;4137141;28;20031;-68
2024/01/10 01:04:15;;;;;;;24.88;15.00;;;0.60;99.90;;;-0.34;100.00;101938.84;4169821;28;20029;-69
2024/01/10 01:06:16;;;;;;;27.02;16.20;;;0.60;99.90;;;-0.32;100.00;101937.91;4138167;28;20034;-69
2024/01/10 01:08:17;;;;;;;27.63;16.25;;;0.60;99.90;;;-0.36;100.00;101936.31;4136803;28;20484;-68
2024/01/10 01:10:18;;;;;;;25.05;14.48;;;0.60;99.90;;;-0.34;100.00;101929.34;4138094;28;20022;-68
2024/01/10 01:12:19;;;;;;;23.75;15.15;;;0.60;99.90;;;-0.34;100.00;101931.94;4138185;28;20050;-68
2024/01/10 01:14:20;;;;;;;27.23;16.48;;;0.60;99.90;;;-0.37;100.00;101937.22;4153084;28;20022;-68
2024/01/10 01:16:21;;;;;;;25.45;14.75;;;0.60;99.90;;;-0.38;100.00;101926.91;4136871;28;20034;-68
2024/01/10 01:18:21;;;;;;;25.77;15.18;;;0.60;99.90;;;-0.37;100.00;101933.78;4138039;28;20033;-68
2024/01/10 01:20:22;;;;;;;29.90;17.05;;;0.60;99.90;;;-0.39;100.00;101931.28;4136868;28;20049;-68
2024/01/10 01:22:23;;;;;;;27.27;15.52;;;0.60;99.90;;;-0.38;100.00;101937.28;4136594;28;20027;-69
2024/01/10 01:24:24;;;;;;;28.25;14.45;;;0.60;99.90;;;-0.38;100.00;101937.28;4138101;28;20383;-68
2024/01/10 01:26:25;;;;;;;24.92;14.05;;;0.60;99.90;;;-0.38;100.00;101932.94;4138069;28;20448;-68
2024/01/10 01:28:25;;;;;;;24.85;16.33;;;0.60;99.90;;;-0.34;100.00;101929.34;4137980;28;20023;-68
2024/01/10 01:30:26;;;;;;;26.70;16.13;;;0.60;99.90;;;-0.34;100.00;101931.09;4136969;28;20026;-68
2024/01/10 01:32:27;;;;;;;26.05;15.10;;;0.60;99.90;;;-0.36;100.00;101927.72;4169283;28;20037;-68
2024/01/10 01:34:28;;;;;;;26.45;16.17;;;0.60;99.90;;;-0.31;100.00;101936.16;4169368;28;20393;-69
2024/01/10 01:36:29;;;;;;;28.40;15.55;;;0.60;99.90;;;-0.32;100.00;101942.22;4137855;28;20034;-69
2024/01/10 01:38:30;;;;;;;29.60;16.73;;;0.60;99.90;;;-0.31;100.00;101939.59;4137681;28;20026;-69
2024/01/10 01:40:31;;;;;;;29.20;16.27;;;0.70;99.90;;;-0.36;100.00;101941.50;4137832;28;20221;-69
2024/01/10 01:42:32;;;;;;;28.75;15.95;;;0.70;99.90;;;-0.38;100.00;101943.31;4137784;28;20034;-68
2024/01/10 01:44:33;;;;;;;24.85;15.55;;;0.60;99.90;;;-0.35;100.00;101939.75;4137812;28;20023;-68
2024/01/10 01:46:34;;;;;;;29.15;16.23;;;0.60;99.90;;;-0.35;100.00;101938.00;4147534;28;20080;-68
2024/01/10 01:48:35;;;;;;;28.85;15.55;;;0.60;99.90;;;-0.30;100.00;101946.44;4120447;28;20074;-69
2024/01/10 01:50:37;;;;;;;25.08;15.48;;;0.60;99.90;;;-0.32;100.00;101945.66;4136136;28;20038;-68
2024/01/10 01:52:38;;;;;;;26.30;15.68;;;0.60;99.90;;;-0.32;100.00;101945.66;4152107;28;20022;-68
2024/01/10 01:54:40;;;;;;;25.50;15.35;;;0.70;99.90;;;-0.31;100.00;101946.53;4132573;28;20026;-69
2024/01/10 01:56:43;;;;;;;26.77;16.67;;;0.60;99.90;;;-0.30;100.00;101949.03;4136379;28;20043;-69
2024/01/10 01:58:47;;;;;;;29.23;16.67;;;0.60;99.90;;;-0.29;100.00;101948.16;4136531;28;20031;-69
2024/01/10 02:00:48;;;;;;;25.50;15.07;;;0.60;99.90;;;-0.29;100.00;101947.28;4120085;28;20338;-69
2024/01/10 02:02:50;;;;;;;28.20;15.88;;;0.60;99.90;;;-0.29;100.00;101947.28;4136097;28;20031;-69
2024/01/10 02:04:51;;;;;;;27.45;16.60;;;0.60;99.90;;;-0.29;100.00;101948.16;4136341;28;20262;-69
2024/01/10 02:06:52;;;;;;;29.90;16.50;;;0.70;99.90;;;-0.27;100.00;101951.53;4137337;28;20057;-69
2024/01/10 02:08:53;;;;;;;32.33;16.58;;;0.70;99.90;;;-0.27;100.00;101954.09;4137437;28;20073;-69
2024/01/10 02:10:54;;;;;;;28.40;16.80;;;0.70;99.90;;;-0.30;100.00;101949.03;4137041;28;20402;-69
2024/01/10 02:12:55;;;;;;;28.25;15.85;;;0.70;99.90;;;-0.28;100.00;101954.19;4168843;28;20021;-69
2024/01/10 02:14:57;;;;;;;29.20;16.58;;;0.70;99.90;;;-0.32;100.00;101955.19;4137426;28;20030;-69
2024/01/10 02:16:57;;;;;;;30.17;16.77;;;0.60;99.90;;;-0.30;100.00;101956.81;4136261;28;20398;-69
2024/01/10 02:19:00;;;;;;;32.55;17.83;;;0.60;99.90;;;-0.29;100.00;101968.88;4149194;28;20026;-69
2024/01/10 02:21:01;;;;;;;27.08;16.98;;;0.60;99.90;;;-0.35;100.00;101958.75;4137032;28;20474;-68
2024/01/10 02:23:02;;;;;;;28.13;17.20;;;0.70;99.90;;;-0.30;100.00;101963.78;4136003;28;20022;-69
2024/01/10 02:25:08;;;;;;;28.88;17.17;;;0.70;99.90;;;-0.30;100.00;101962.00;4136103;28;20073;-69
2024/01/10 02:27:10;;;;;;;27.63;15.77;;;0.70;99.90;;;-0.31;100.00;101960.34;4136994;28;20037;-69
2024/01/10 02:29:11;;;;;;;27.58;17.02;;;0.70;99.90;;;-0.30;100.00;101967.19;4135943;28;20181;-69
2024/01/10 02:31:12;;;;;;;26.95;17.27;;;0.60;99.90;;;-0.27;100.00;101966.25;4137003;28;20494;-69
2024/01/10 02:33:13;;;;;;;27.50;17.02;;;0.60;99.90;;;-0.27;100.00;101966.25;4137137;28;20035;-69
2024/01/10 02:35:13;;;;;;;31.65;17.27;;;0.70;99.90;;;-0.28;100.00;101968.00;4168288;28;20048;-69
2024/01/10 02:37:14;;;;;;;29.40;17.50;;;0.60;99.90;;;-0.28;100.00;101970.59;4136904;28;20053;-69
2024/01/10 02:39:15;;;;;;;25.98;16.25;;;0.60;99.90;;;-0.35;100.00;101961.34;4137204;28;20031;-69
2024/01/10 02:41:16;;;;;;;28.95;16.92;;;0.60;99.90;;;-0.33;100.00;101966.47;4135671;28;20496;-68
2024/01/10 02:43:17;;;;;;;29.38;17.63;;;0.60;99.90;;;-0.38;100.00;101964.03;4136580;28;20100;-69
2024/01/10 02:45:18;;;;;;;34.75;18.52;;;0.60;99.90;;;-0.38;100.00;101971.81;4136687;28;20022;-69
2024/01/10 02:47:19;;;;;;;32.67;19.05;;;0.60;99.90;;;-0.45;100.00;101962.59;4135612;28;20034;-69
2024/01/10 02:49:20;;;;;;;35.35;18.92;;;0.60;99.90;;;-0.43;100.00;101970.31;4136982;28;20073;-69
2024/01/10 02:51:21;;;;;;;30.90;18.52;;;0.60;99.90;;;-0.45;100.00;101960.00;4136756;28;20041;-69
2024/01/10 02:53:22;;;;;;;35.00;18.70;;;0.50;99.90;;;-0.41;100.00;101973.69;4134971;28;20109;-69
2024/01/10 02:55:23;;;;;;;31.75;17.30;;;0.50;99.90;;;-0.45;100.00;101960.00;4136666;28;20057;-69
2024/01/10 02:57:24;;;;;;;32.33;18.70;;;0.50;99.90;;;-0.41;100.00;101956.38;4137101;28;20026;-69
2024/01/10 02:59:25;;;;;;;29.23;17.00;;;0.50;99.90;;;-0.39;100.00;101957.19;4135573;28;20022;-69
2024/01/10 03:01:26;;;;;;;34.85;19.80;;;0.60;99.90;;;-0.36;100.00;101961.41;4136596;28;20019;-68
2024/01/10 03:03:26;;;;;;;33.85;19.38;;;0.60;99.90;;;-0.38;100.00;101953.69;4136617;28;20054;-69
2024/01/10 03:05:27;;;;;;;32.25;19.30;;;0.60;99.90;;;-0.35;100.00;101958.75;4135547;28;20030;-68
2024/01/10 03:07:28;;;;;;;33.40;19.40;;;0.60;99.90;;;-0.37;100.00;101960.56;4135009;28;20029;-68
2024/01/10 03:09:29;;;;;;;32.88;19.00;;;0.60;99.90;;;-0.34;100.00;101960.44;4136294;28;20033;-69
2024/01/10 03:11:35;;;;;;;34.28;18.35;;;0.60;99.90;;;-0.34;100.00;101954.41;4136235;28;20061;-69
2024/01/10 03:13:35;;;;;;;32.13;17.92;;;0.60;99.90;;;-0.35;100.00;101957.91;4135089;28;20030;-70
2024/01/10 03:15:36;;;;;;;35.03;19.85;;;0.60;99.90;;;-0.36;100.00;101958.81;4136173;28;20061;-69
2024/01/10 03:17:37;;;;;;;35.03;20.17;;;0.60;99.90;;;-0.44;100.00;101942.69;4136173;28;20022;-69
2024/01/10 03:19:42;;;;;;;33.20;18.65;;;0.60;99.90;;;-0.35;100.00;101957.91;4136416;28;20037;-69
2024/01/10 03:21:43;;;;;;;36.58;20.05;;;0.60;99.90;;;-0.36;100.00;101961.41;4136125;28;20029;-69
2024/01/10 03:23:44;;;;;;;37.03;20.73;;;0.60;99.90;;;-0.33;100.00;101961.28;4136343;28;20023;-69
2024/01/10 03:25:44;;;;;;;36.20;20.13;;;0.60;99.90;;;-0.31;100.00;101956.88;4135020;28;20026;-69
2024/01/10 03:27:45;;;;;;;37.83;20.92;;;0.60;99.90;;;-0.33;100.00;101956.94;4136208;28;20026;-69
2024/01/10 03:29:46;;;;;;;38.38;19.08;;;0.60;99.90;;;-0.29;100.00;101952.47;4136288;28;20490;-69
2024/01/10 03:31:47;;;;;;;36.38;19.95;;;0.70;99.90;;;-0.30;100.00;101956.81;4136208;28;20053;-69
2024/01/10 03:33:48;;;;;;;36.22;20.20;;;0.70;99.90;;;-0.29;100.00;101957.66;4136221;28;20027;-68
2024/01/10 03:35:49;;;;;;;33.83;18.92;;;0.70;99.90;;;-0.25;100.00;101962.69;4134767;28;20073;-69
2024/01/10 03:37:50;;;;;;;37.63;21.60;;;0.70;99.90;;;-0.22;100.00;101964.31;4135717;28;20482;-69
2024/01/10 03:39:51;;;;;;;40.40;22.08;;;0.70;99.90;;;-0.28;100.00;101965.41;4134469;28;20379;-69
2024/01/10 03:41:52;;;;;;;40.92;21.08;;;0.70;99.90;;;-0.30;100.00;101954.22;4134544;28;20109;-69
2024/01/10 03:43:54;;;;;;;35.38;21.20;;;0.70;99.90;;;-0.32;100.00;101957.78;4134542;28;20493;-69
2024/01/10 03:45:55;;;;;;;40.63;22.38;;;0.70;99.90;;;-0.32;100.00;101958.63;4134469;28;20026;-69
2024/01/10 03:47:55;;;;;;;44.70;23.45;;;0.60;99.90;;;-0.33;100.00;101962.13;4134440;28;20042;-68
2024/01/10 03:49:57;;;;;;;38.97;21.45;;;0.60;99.90;;;-0.33;100.00;101962.13;4133038;28;20026;-69
2024/01/10 03:51:58;;;;;;;44.30;21.65;;;0.60;99.90;;;-0.33;100.00;101956.94;4134278;28;20106;-68
2024/01/10 03:53:58;;;;;;;40.65;21.30;;;0.60;99.90;;;-0.30;100.00;101956.00;4135877;28;20026;-69
2024/01/10 03:55:59;;;;;;;40.22;20.95;;;0.70;99.90;;;-0.28;100.00;101959.38;4139418;28;20038;-69
2024/01/10 03:58:00;;;;;;;40.22;20.67;;;0.70;99.90;;;-0.29;100.00;101950.75;4139338;28;20030;-69
2024/01/10 04:00:01;;;;;;;41.13;21.70;;;0.70;99.90;;;-0.33;100.00;101943.16;4138214;28;20532;-69
2024/01/10 04:02:02;;;;;;;36.63;20.83;;;0.70;99.90;;;-0.28;100.00;101952.44;4154219;28;20033;-69
2024/01/10 04:04:03;;;;;;;40.90;21.98;;;0.70;99.90;;;-0.28;100.00;101951.59;4139415;28;20031;-68
2024/01/10 04:06:05;;;;;;;41.17;21.25;;;0.70;99.90;;;-0.31;100.00;101962.06;4139308;28;20058;-69
2024/01/10 04:08:07;;;;;;;38.35;21.95;;;0.70;99.90;;;-0.35;100.00;101948.38;4138872;28;20034;-68
2024/01/10 04:10:10;;;;;;;38.95;21.63;;;0.70;99.90;;;-0.32;100.00;101943.09;4170011;28;20077;-69
2024/01/10 04:12:11;;;;;;;46.85;23.02;;;0.70;99.90;;;-0.33;100.00;101943.16;4137738;28;20608;-68
2024/01/10 04:14:12;;;;;;;40.30;22.67;;;0.70;99.90;;;-0.31;100.00;101949.97;4139119;28;20034;-69
2024/01/10 04:16:13;;;;;;;42.95;21.90;;;0.70;99.90;;;-0.27;100.00;101954.09;4139019;28;20053;-68
2024/01/10 04:18:14;;;;;;;42.92;21.17;;;0.70;99.90;;;-0.28;100.00;101946.41;4138949;28;20023;-68
2024/01/10 04:20:15;;;;;;;42.53;21.23;;;0.70;99.90;;;-0.26;100.00;101953.22;4139229;28;20026;-68
2024/01/10 04:22:16;;;;;;;40.88;21.33;;;0.70;99.90;;;-0.29;100.00;101948.16;4138736;28;20398;-68
2024/01/10 04:24:17;;;;;;;39.00;21.27;;;0.70;99.90;;;-0.31;100.00;101942.19;4138853;28;20030;-69
2024/01/10 04:26:18;;;;;;;39.92;21.17;;;0.70;99.90;;;-0.30;100.00;101941.25;4139032;28;20030;-68
2024/01/10 04:28:19;;;;;;;47.65;23.95;;;0.70;99.90;;;-0.31;100.00;101937.00;4139118;28;20038;-68
2024/01/10 04:30:19;;;;;;;43.78;22.85;;;0.70;99.90;;;-0.36;100.00;101949.28;4138893;28;20029;-68
2024/01/10 04:32:20;;;;;;;43.13;21.50;;;0.60;99.90;;;-0.42;100.00;101933.97;4138661;28;20069;-68
2024/01/10 04:34:22;;;;;;;37.53;21.35;;;0.60;99.90;;;-0.40;100.00;101937.34;4137619;28;20109;-68
2024/01/10 04:36:23;;;;;;;43.65;24.10;;;0.60;99.90;;;-0.39;100.00;101940.78;4137760;28;20485;-68
2024/01/10 04:38:26;;;;;;;46.50;22.08;;;0.60;99.90;;;-0.33;100.00;101948.34;4138483;28;20018;-68
2024/01/10 04:40:27;;;;;;;38.20;22.13;;;0.60;99.90;;;-0.38;100.00;101938.13;4137369;28;20518;-68
2024/01/10 04:42:28;;;;;;;43.45;22.52;;;0.60;99.90;;;-0.34;100.00;101944.91;4138778;28;20030;-68
2024/01/10 04:44:29;;;;;;;40.33;21.58;;;0.60;99.90;;;-0.32;100.00;101944.81;4121292;28;20027;-68
2024/01/10 04:46:30;;;;;;;39.35;22.27;;;0.60;99.90;;;-0.32;100.00;101937.03;4153716;28;20037;-68
2024/01/10 04:48:31;;;;;;;43.92;24.27;;;0.60;99.90;;;-0.33;100.00;101936.19;4138517;28;20200;-68
2024/01/10 04:50:32;;;;;;;43.40;21.17;;;0.70;99.90;;;-0.28;100.00;101941.22;4138627;28;20046;-69
2024/01/10 04:52:32;;;;;;;41.47;22.08;;;0.70;99.90;;;-0.34;100.00;101942.31;4138387;28;20030;-68
2024/01/10 04:54:34;;;;;;;43.72;23.58;;;0.60;99.90;;;-0.39;100.00;101936.47;4138511;28;20026;-68
2024/01/10 04:56:38;;;;;;;48.17;24.25;;;0.60;99.90;;;-0.37;100.00;101939.81;4138478;28;20037;-68
2024/01/10 04:58:39;;;;;;;;;;;0.60;99.90;;;-0.38;100.00;101932.94;4139117;28;20057;-69
2024/01/10 05:00:40;;;;;;;45.80;21.15;;;0.60;99.90;;;-0.38;100.00;101942.47;4138419;28;20373;-69
2024/01/10 05:02:40;;;;;;;42.20;21.77;;;0.60;99.90;;;-0.37;100.00;101936.38;4138377;28;20022;-68
2024/01/10 05:04:41;;;;;;;46.67;23.73;;;0.60;99.90;;;-0.34;100.00;101939.72;4138245;28;20038;-69
2024/01/10 05:06:42;;;;;;;39.17;20.58;;;0.60;99.90;;;-0.39;100.00;101935.59;4137034;28;20106;-70
2024/01/10 05:08:43;;;;;;;45.55;21.60;;;0.60;99.90;;;-0.39;100.00;101935.59;4138168;28;20030;-68
2024/01/10 05:10:44;;;;;;;40.80;20.17;;;0.60;99.90;;;-0.39;100.00;101935.59;4136940;28;20512;-69
2024/01/10 05:12:45;;;;;;;45.72;21.90;;;0.60;99.90;;;-0.37;100.00;101928.59;4136850;28;20061;-69
2024/01/10 05:14:45;;;;;;;44.65;23.63;;;0.60;99.90;;;-0.44;100.00;101933.16;4138264;28;20026;-69
2024/01/10 05:16:47;;;;;;;49.90;23.30;;;0.60;99.90;;;-0.46;100.00;101928.94;4137020;28;20529;-69
2024/01/10 05:18:48;;;;;;;43.20;21.58;;;0.50;99.90;;;-0.44;100.00;101932.31;4138200;28;20019;-69
2024/01/10 05:20:49;;;;;;;43.55;23.67;;;0.50;99.90;;;-0.40;100.00;101924.38;4120651;28;20649;-69
2024/01/10 05:22:50;;;;;;;48.15;23.73;;;0.50;99.90;;;-0.42;100.00;101930.53;4136527;28;20026;-69
2024/01/10 05:24:51;;;;;;;45.55;23.80;;;0.50;99.90;;;-0.39;100.00;101931.28;4138604;28;20034;-69
2024/01/10 05:26:52;;;;;;;44.92;22.88;;;0.60;99.90;;;-0.39;100.00;101933.88;4138003;28;20026;-69
2024/01/10 05:28:53;;;;;;;48.72;24.08;;;0.60;99.90;;;-0.38;100.00;101924.31;4138061;28;20026;-69
2024/01/10 05:30:54;;;;;;;46.53;23.77;;;0.60;99.90;;;-0.44;100.00;101920.22;4138047;28;20030;-68
2024/01/10 05:32:55;;;;;;;45.63;21.35;;;0.50;99.90;;;-0.46;100.00;101923.75;4136970;28;20037;-69
2024/01/10 05:34:56;;;;;;;47.60;22.98;;;0.50;99.90;;;-0.42;100.00;101925.34;4136798;28;20501;-69
2024/01/10 05:36:56;;;;;;;41.97;22.48;;;0.50;99.90;;;-0.44;100.00;101922.78;4137608;28;20023;-68
2024/01/10 05:38:57;;;;;;;45.15;23.15;;;0.50;99.90;;;-0.42;100.00;101931.38;4137963;28;20478;-68
2024/01/10 05:40:58;;;;;;;42.55;22.10;;;0.60;99.90;;;-0.43;100.00;101923.66;4136595;28;20034;-69
2024/01/10 05:42:59;;;;;;;40.20;21.85;;;0.60;99.90;;;-0.42;100.00;101920.16;4137807;28;20095;-69
2024/01/10 05:45:02;;;;;;;45.72;22.08;;;0.60;99.90;;;-0.43;100.00;101924.50;4136419;28;20026;-69
2024/01/10 05:47:03;;;;;;;49.67;23.65;;;0.60;99.90;;;-0.43;100.00;101921.91;4137881;28;20473;-69
2024/01/10 05:49:04;;;;;;;45.28;23.67;;;0.50;99.90;;;-0.43;100.00;101923.66;4137775;28;20035;-68
2024/01/10 05:51:05;;;;;;;49.55;22.58;;;0.50;99.90;;;-0.49;100.00;101921.28;4137835;28;20022;-69
2024/01/10 05:53:08;;;;;;;47.92;23.95;;;0.50;99.90;;;-0.58;100.00;101914.69;4136210;28;20041;-69
2024/01/10 05:55:09;;;;;;;47.42;23.35;;;0.50;99.90;;;-0.58;100.00;101922.47;4137770;28;20033;-69
2024/01/10 05:57:10;;;;;;;48.70;22.70;;;0.40;99.90;;;-0.61;100.00;101913.06;4136562;28;20026;-69
2024/01/10 05:59:11;;;;;;;45.72;22.50;;;0.40;99.90;;;-0.61;100.00;101912.22;4137660;28;20037;-69
2024/01/10 06:01:12;;;;;;;47.95;22.75;;;0.40;99.90;;;-0.59;100.00;101916.44;4136292;28;20026;-68
2024/01/10 06:03:13;;;;;;;43.67;22.05;;;0.40;99.90;;;-0.60;100.00;101916.50;4137561;28;20030;-68
2024/01/10 06:05:14;;;;;;;52.47;24.88;;;0.40;99.90;;;-0.61;100.00;101923.44;4137464;28;20037;-69
2024/01/10 06:07:15;;;;;;;41.88;22.25;;;0.40;99.90;;;-0.58;100.00;101922.47;4135944;28;20454;-68
2024/01/10 06:09:21;;;;;;;46.95;24.42;;;0.40;99.90;;;-0.63;100.00;101921.81;4136016;28;20039;-68
2024/01/10 06:11:22;;;;;;;42.65;23.50;;;0.40;99.90;;;-0.65;100.00;101929.63;4136150;28;20561;-68
2024/01/10 06:13:23;;;;;;;47.65;23.58;;;0.40;99.90;;;-0.61;100.00;101917.41;4136138;28;20034;-68
2024/01/10 06:15:24;;;;;;;45.75;23.15;;;0.30;99.90;;;-0.60;100.00;101922.50;4137189;28;20080;-68
2024/01/10 06:17:25;;;;;;;48.72;25.08;;;0.40;99.90;;;-0.64;100.00;101923.53;4136501;28;20077;-68
2024/01/10 06:19:26;;;;;;;48.17;24.88;;;0.40;99.90;;;-0.68;100.00;101924.53;4136158;28;20425;-68
2024/01/10 06:21:26;;;;;;;48.65;24.55;;;0.30;99.90;;;-0.67;100.00;101920.22;4136006;28;20034;-68
2024/01/10 06:23:27;;;;;;;51.05;25.08;;;0.30;99.90;;;-0.66;100.00;101927.91;4135741;28;20023;-68
2024/01/10 06:25:28;;;;;;;49.72;25.73;;;0.30;99.90;;;-0.66;100.00;101927.09;4135775;28;20026;-68
2024/01/10 06:27:30;;;;;;;49.10;26.58;;;0.30;99.90;;;-0.69;100.00;101922.03;4137200;28;20030;-69
2024/01/10 06:29:31;;;;;;;48.05;23.52;;;0.30;99.90;;;-0.63;100.00;101927.00;4136093;28;20038;-68
2024/01/10 06:31:31;;;;;;;49.35;25.25;;;0.30;99.90;;;-0.68;100.00;101923.69;4137083;28;20040;-68
2024/01/10 06:33:32;;;;;;;53.08;25.33;;;0.30;99.90;;;-0.67;100.00;101920.22;4151844;28;20087;-68
2024/01/10 06:35:34;;;;;;;43.35;23.60;;;0.30;99.90;;;-0.68;100.00;101915.94;4136960;28;20035;-68
2024/01/10 06:37:35;;;;;;;46.55;24.13;;;0.30;99.90;;;-0.76;100.00;101916.22;4136722;28;20033;-68
2024/01/10 06:39:36;;;;;;;46.85;24.75;;;0.30;99.90;;;-0.75;100.00;101914.47;4136555;28;20482;-69
2024/01/10 06:41:36;;;;;;;44.35;23.00;;;0.30;99.90;;;-0.74;100.00;101921.34;4136812;28;20441;-69
2024/01/10 06:43:37;;;;;;;49.90;25.73;;;0.30;99.90;;;-0.77;100.00;101913.66;4136947;28;20035;-69
2024/01/10 06:45:39;;;;;;;47.53;24.80;;;0.30;99.90;;;-0.76;100.00;101920.56;4136851;28;20031;-69
2024/01/10 06:47:40;;;;;;;47.63;24.20;;;0.20;99.90;;;-0.75;100.00;101911.88;4136654;28;20026;-69
2024/01/10 06:49:41;;;;;;;48.92;24.48;;;0.20;99.90;;;-0.77;100.00;101914.50;4136807;28;20037;-69
2024/01/10 06:51:42;;;;;;;44.13;22.02;;;0.20;99.90;;;-0.75;100.00;101914.47;4135108;28;20493;-69
2024/01/10 06:53:43;;;;;;;44.72;23.17;;;0.20;99.90;;;-0.74;100.00;101916.16;4125634;28;20474;-68
2024/01/10 06:55:44;;;;;;;43.92;23.48;;;0.20;99.90;;;-0.75;100.00;101906.72;4135509;28;20031;-69
2024/01/10 06:57:45;;;;;;;41.83;22.75;;;0.30;99.90;;;-0.70;100.00;101907.38;4136657;28;20030;-69
2024/01/10 06:59:46;;;;;;;45.28;24.95;;;0.30;99.90;;;-0.68;100.00;101914.19;4136656;28;20022;-69
2024/01/10 07:01:53;;;;;;;50.00;25.48;;;0.30;99.90;;;-0.66;100.00;101904.59;4135432;28;20069;-68
2024/01/10 07:03:54;;;;;;;43.47;22.77;;;0.30;99.90;;;-0.68;100.00;101909.00;4135418;28;20018;-69
2024/01/10 07:05:57;;;;;;;48.28;23.95;;;0.30;99.90;;;-0.67;100.00;101910.72;4136605;28;20033;-69
2024/01/10 07:07:58;;;;;;;45.40;23.10;;;0.30;99.90;;;-0.72;100.00;101906.59;4136216;28;20153;-69
2024/01/10 07:10:00;;;;;;;46.83;23.73;;;0.30;99.90;;;-0.68;100.00;101914.19;4135322;28;20038;-68
2024/01/10 07:12:02;;;;;;;46.40;24.20;;;0.30;99.90;;;-0.68;100.00;101921.09;4136360;28;20049;-68
2024/01/10 07:14:03;;;;;;;50.67;24.95;;;0.30;99.90;;;-0.72;100.00;101916.97;4136467;28;20037;-68
2024/01/10 07:16:04;;;;;;;48.10;23.42;;;0.30;99.90;;;-0.74;100.00;101923.91;4118774;28;20038;-68
2024/01/10 07:18:06;;;;;;;48.75;24.58;;;0.30;99.90;;;-0.74;100.00;101919.59;4136274;28;20034;-68
2024/01/10 07:20:08;;;;;;;43.75;23.00;;;0.30;99.90;;;-0.69;100.00;101922.84;4136556;28;20080;-68
2024/01/10 07:22:10;;;;;;;48.70;23.83;;;0.30;99.90;;;-0.67;100.00;101925.41;4136190;28;20030;-68
2024/01/10 07:24:11;;;;;;;47.53;23.63;;;0.30;99.90;;;-0.73;100.00;101916.09;4136185;28;20022;-68
2024/01/10 07:26:16;;;;;;;45.90;23.48;;;0.30;99.90;;;-0.73;100.00;101925.63;4136511;28;20026;-68
2024/01/10 07:28:18;;;;;;;44.47;23.45;;;0.30;99.90;;;-0.71;100.00;101934.16;4135670;28;20032;-69
2024/01/10 07:30:18;;;;;;;45.72;23.50;;;0.30;99.90;;;-0.70;100.00;101933.28;4135933;28;20041;-68
2024/01/10 07:32:19;;;;;;;45.20;24.00;;;0.30;99.90;;;-0.77;100.00;101931.81;4136604;28;20026;-68
2024/01/10 07:34:21;;;;;;;44.00;23.67;;;0.30;99.90;;;-0.82;100.00;101925.94;4135479;28;20023;-68
2024/01/10 07:36:31;;;;;;;43.63;23.25;;;0.20;99.90;;;-0.78;100.00;101936.16;4135071;28;20034;-68
2024/01/10 07:38:33;;;;;;;40.95;23.55;;;0.20;99.90;;;-0.81;100.00;101940.59;4136236;28;20034;-68
2024/01/10 07:40:35;;;;;;;45.65;23.33;;;0.20;99.90;;;-0.82;100.00;101936.31;4134857;28;20023;-69
2024/01/10 07:42:37;;;;;;;43.88;22.52;;;0.20;99.90;;;-0.85;100.00;101934.69;4135002;28;20442;-68
2024/01/10 07:44:38;;;;;;;45.28;22.00;;;0.10;99.90;;;-0.95;100.00;101930.72;4134962;28;20033;-68
2024/01/10 07:46:39;;;;;;;36.80;22.23;;;0.20;99.90;;;-0.90;100.00;101933.16;4134793;28;20034;-69
2024/01/10 07:48:39;;;;;;;38.88;21.75;;;0.10;99.90;;;-0.95;100.00;101929.84;4134978;28;20038;-69
2024/01/10 07:50:40;;;;;;;38.55;22.73;;;0.10;99.90;;;-0.97;100.00;101936.84;4135221;28;20034;-69
2024/01/10 07:52:43;;;;;;;38.25;21.48;;;0.10;99.90;;;-0.95;100.00;101937.63;4135843;28;20028;-68
2024/01/10 07:54:44;;;;;;;41.78;22.20;;;0.10;99.90;;;-0.94;100.00;101931.56;4136014;28;20034;-69
2024/01/10 07:56:45;;;;;;;39.65;21.63;;;0.10;99.90;;;-0.94;100.00;101942.78;4136009;28;20027;-68
2024/01/10 07:58:45;;;;;;;37.30;21.02;;;0.10;99.90;;;-0.90;100.00;101944.38;4134886;28;20036;-69
2024/01/10 08:00:46;;;;;;;36.17;19.92;;;0.10;99.90;;;-0.90;100.00;101943.50;4135985;28;20517;-69
2024/01/10 08:02:49;;;;;;;36.40;20.85;;;0.10;99.90;;;-0.94;100.00;101942.78;4134739;28;20086;-69
2024/01/10 08:04:51;;;;;;;37.17;20.60;;;0.10;99.90;;;-0.93;100.00;101954.84;4136082;28;20437;-68
2024/01/10 08:06:53;;;;;;;37.38;20.75;;;0.10;99.90;;;-0.95;100.00;101951.44;4135848;28;20096;-69
2024/01/10 08:08:54;;;;;;;37.95;20.98;;;0.10;99.90;;;-0.91;100.00;101957.34;4134731;28;20517;-69
2024/01/10 08:10:56;;;;;;;35.67;20.20;;;0.10;99.90;;;-0.94;100.00;101952.28;4135576;28;20022;-69
2024/01/10 08:12:57;;;;;;;41.20;21.92;;;0.10;99.90;;;-0.91;100.00;101947.84;4135952;28;20084;-69
2024/01/10 08:14:58;;;;;;;35.67;20.23;;;0.10;99.90;;;-0.90;100.00;101954.72;4135825;28;20034;-69